Time;durP1;ratioP1;P1;durP2;ratioP2;P2;SDS_P1;SDS_P2;PMS_P1;PMS_P2;Temp;Humidity;BMP_temperature;BMP_pressure;BME280_temperature;BME280_humidity;BME280_pressure;Samples;Min_cycle;Max_cycle;Signal;HPM_P1;HPM_P2
2022/09/25 00:03:10;;;;;;;66.93;38.60;;;8.00;99.90;;;;;;9867262;30;20059;-82
2022/09/25 00:08:12;;;;;;;56.53;35.27;;;8.10;99.90;;;;;;9864644;30;20121;-80
2022/09/25 00:13:18;;;;;;;58.87;34.27;;;8.00;99.90;;;;;;9862717;30;20047;-80
2022/09/25 00:23:40;;;;;;;55.57;31.73;;;8.10;99.90;;;;;;9860894;30;20743;-82
2022/09/25 00:28:41;;;;;;;45.27;29.33;;;8.10;99.90;;;;;;9847816;30;20039;-81
2022/09/25 00:33:42;;;;;;;54.17;32.53;;;8.10;99.90;;;;;;9862845;30;20043;-81
2022/09/25 00:38:45;;;;;;;51.13;30.83;;;8.10;99.90;;;;;;9850092;30;20089;-81
2022/09/25 00:43:49;;;;;;;54.70;31.67;;;8.10;99.90;;;;;;9866095;30;20090;-81
2022/09/25 00:49:04;;;;;;;47.57;28.97;;;8.20;99.90;;;;;;9856135;30;20064;-81
2022/09/25 00:54:06;;;;;;;50.17;30.50;;;8.30;99.90;;;;;;9856349;30;20044;-82
2022/09/25 00:59:11;;;;;;;51.63;31.50;;;8.40;99.90;;;;;;9862176;30;20047;-80
2022/09/25 01:04:13;;;;;;;53.78;31.63;;;8.50;99.90;;;;;;9826391;30;20135;-80
2022/09/25 01:09:14;;;;;;;60.50;34.33;;;8.60;99.90;;;;;;9827607;30;20040;-82
2022/09/25 01:14:16;;;;;;;46.07;29.67;;;8.70;99.90;;;;;;9828037;30;20390;-80
2022/09/25 01:19:44;;;;;;;49.80;29.57;;;8.70;99.90;;;;;;9827069;30;20040;-81
2022/09/25 01:24:54;;;;;;;45.43;27.20;;;8.70;99.90;;;;;;9825587;30;20553;-80
2022/09/25 01:30:11;;;;;;;37.83;24.17;;;8.70;99.90;;;;;;9825672;30;20111;-81
2022/09/25 01:35:30;;;;;;;41.37;25.10;;;8.80;99.90;;;;;;9823567;30;20055;-80
2022/09/25 01:40:42;;;;;;;45.70;26.80;;;8.80;99.90;;;;;;9824351;30;20448;-81
2022/09/25 01:45:55;;;;;;;48.80;27.30;;;8.90;99.90;;;;;;9820000;30;20044;-80
2022/09/25 01:51:02;;;;;;;50.97;28.73;;;8.80;99.90;;;;;;9822318;30;20044;-82
2022/09/25 01:56:11;;;;;;;40.77;25.20;;;8.90;99.90;;;;;;9823351;30;20107;-81
2022/09/25 02:01:21;;;;;;;41.37;25.10;;;8.80;99.90;;;;;;9821079;30;20040;-81
2022/09/25 02:06:22;;;;;;;43.73;26.27;;;8.80;99.90;;;;;;9847498;30;20711;-81
2022/09/25 02:11:30;;;;;;;48.80;29.67;;;8.80;99.90;;;;;;9861911;30;20097;-81
2022/09/25 02:16:36;;;;;;;43.30;26.60;;;8.80;99.90;;;;;;9861942;30;20031;-81
2022/09/25 02:21:52;;;;;;;40.33;26.00;;;8.80;99.90;;;;;;9846499;30;20492;-81
2022/09/25 02:26:52;;;;;;;;;;;8.90;99.90;;;;;;9863107;30;20187;-80
2022/09/25 02:31:58;;;;;;;42.00;25.37;;;8.90;99.90;;;;;;9861479;30;20459;-81
2022/09/25 02:36:59;;;;;;;41.75;25.25;;;8.90;99.90;;;;;;9862501;30;20042;-81
2022/09/25 02:42:27;;;;;;;38.97;24.90;;;8.90;99.90;;;;;;9862293;30;20039;-81
2022/09/25 02:47:36;;;;;;;38.43;23.73;;;8.90;99.90;;;;;;9858272;30;20051;-81
2022/09/25 02:52:44;;;;;;;37.60;22.23;;;8.90;99.90;;;;;;9862143;30;20043;-81
2022/09/25 02:57:53;;;;;;;37.77;22.47;;;9.00;99.90;;;;;;9844388;30;20044;-81
2022/09/25 03:02:58;;;;;;;29.73;18.30;;;9.00;99.90;;;;;;9860484;30;20060;-81
2022/09/25 03:13:21;;;;;;;35.33;21.80;;;9.00;99.90;;;;;;9861868;30;20552;-81
2022/09/25 03:18:21;;;;;;;33.97;21.90;;;8.90;99.90;;;;;;9862132;30;20512;-82
2022/09/25 03:23:22;;;;;;;36.93;22.90;;;8.90;99.90;;;;;;9846367;30;20130;-81
2022/09/25 03:28:23;;;;;;;45.10;25.40;;;8.90;99.90;;;;;;9861510;30;20564;-82
2022/09/25 03:33:25;;;;;;;37.87;23.47;;;8.80;99.90;;;;;;9861636;30;20135;-81
2022/09/25 03:38:26;;;;;;;40.87;24.87;;;8.70;99.90;;;;;;9861801;30;20039;-81
2022/09/25 03:43:28;;;;;;;41.30;24.37;;;8.70;99.90;;;;;;9861440;30;20046;-81
2022/09/25 03:48:29;;;;;;;45.47;25.07;;;8.70;99.90;;;;;;9860706;30;20504;-81
2022/09/25 03:53:32;;;;;;;42.40;24.33;;;8.70;99.90;;;;;;9861730;30;20701;-82
2022/09/25 03:58:33;;;;;;;42.33;24.33;;;8.80;99.90;;;;;;9860752;30;20040;-82
2022/09/25 04:03:33;;;;;;;39.93;23.27;;;8.80;99.90;;;;;;9844822;30;20059;-82
2022/09/25 04:08:35;;;;;;;36.17;22.77;;;8.70;99.90;;;;;;9863952;30;20401;-82
2022/09/25 04:13:36;;;;;;;35.23;21.47;;;8.80;99.90;;;;;;9861065;30;20047;-82
2022/09/25 04:18:40;;;;;;;42.33;24.03;;;8.80;99.90;;;;;;9860785;30;20103;-81
2022/09/25 04:23:41;;;;;;;40.33;24.53;;;8.70;99.90;;;;;;9848102;30;20667;-81
2022/09/25 04:28:44;;;;;;;31.33;20.73;;;8.70;99.90;;;;;;9858516;30;20109;-82
2022/09/25 04:33:47;;;;;;;44.67;26.57;;;8.80;99.90;;;;;;9857769;30;20116;-80
2022/09/25 04:38:48;;;;;;;42.70;25.97;;;8.80;99.90;;;;;;9856347;30;20039;-80
2022/09/25 04:43:49;;;;;;;42.47;26.07;;;8.80;99.90;;;;;;9867347;30;20024;-80
2022/09/25 04:48:49;;;;;;;41.03;25.63;;;8.80;99.90;;;;;;9867397;30;20035;-80
2022/09/25 04:53:50;;;;;;;42.93;25.67;;;8.90;99.90;;;;;;9866245;30;20501;-80
2022/09/25 04:58:51;;;;;;;40.77;25.10;;;8.90;99.90;;;;;;9866733;30;20031;-81
2022/09/25 05:03:54;;;;;;;35.80;22.57;;;9.00;99.90;;;;;;9866308;30;20067;-80
2022/09/25 05:08:56;;;;;;;38.93;23.93;;;9.00;99.90;;;;;;9860179;30;20492;-80
2022/09/25 05:13:56;;;;;;;42.07;24.93;;;9.00;99.90;;;;;;9866124;30;20382;-80
2022/09/25 05:18:58;;;;;;;37.83;23.27;;;9.20;99.90;;;;;;9865866;30;20039;-81
2022/09/25 05:23:58;;;;;;;37.10;23.27;;;9.20;99.90;;;;;;9849660;30;20408;-80
2022/09/25 05:28:59;;;;;;;37.70;23.87;;;9.20;99.90;;;;;;9865156;30;20047;-80
2022/09/25 05:34:00;;;;;;;38.77;23.63;;;9.30;99.90;;;;;;9865176;30;20140;-82
2022/09/25 05:39:00;;;;;;;37.30;22.97;;;9.40;99.90;;;;;;9865326;30;20040;-80
2022/09/25 05:44:05;;;;;;;35.93;23.40;;;9.50;99.90;;;;;;9864550;30;20111;-80
2022/09/25 05:49:06;;;;;;;73.17;46.27;;;9.60;99.90;;;;;;9860056;30;20024;-80
2022/09/25 05:54:06;;;;;;;112.50;77.77;;;9.70;99.90;;;;;;9848471;30;20047;-80
2022/09/25 05:59:07;;;;;;;92.13;61.17;;;9.80;99.90;;;;;;9863991;30;20035;-81
2022/09/25 06:04:08;;;;;;;53.47;38.67;;;9.90;99.90;;;;;;9864516;30;20066;-80
2022/09/25 06:09:09;;;;;;;119.88;83.45;;;9.90;99.90;;;;;;9847784;30;20027;-80
2022/09/25 06:14:11;;;;;;;59.38;39.65;;;9.90;99.90;;;;;;9863826;30;20631;-80
2022/09/25 06:19:12;;;;;;;51.55;32.97;;;9.90;99.90;;;;;;9847614;30;20036;-80
2022/09/25 06:24:12;;;;;;;45.80;29.13;;;9.90;99.90;;;;;;9858995;30;20085;-80
2022/09/25 06:29:13;;;;;;;73.05;39.70;;;9.90;99.90;;;;;;9861787;30;20050;-81
2022/09/25 06:34:13;;;;;;;105.63;60.53;;;10.00;99.90;;;;;;9856446;30;20059;-81
2022/09/25 06:39:14;;;;;;;65.63;42.75;;;10.10;99.90;;;;;;9859434;30;20032;-82
2022/09/25 06:44:15;;;;;;;48.45;30.48;;;10.10;99.90;;;;;;9844738;30;20035;-81
2022/09/25 06:49:15;;;;;;;47.33;29.48;;;10.10;99.90;;;;;;9862192;30;20034;-82
2022/09/25 06:54:16;;;;;;;47.58;32.47;;;10.10;99.90;;;;;;9861337;30;20042;-81
2022/09/25 06:59:17;;;;;;;46.00;29.02;;;10.30;99.90;;;;;;9861861;30;20039;-82
2022/09/25 07:04:17;;;;;;;59.58;38.97;;;10.30;99.90;;;;;;9843742;30;20066;-80
2022/09/25 07:09:18;;;;;;;87.45;63.95;;;10.30;99.90;;;;;;9861545;30;20645;-81
2022/09/25 07:14:19;;;;;;;55.08;36.42;;;10.30;99.90;;;;;;9863910;30;20101;-80
2022/09/25 07:19:20;;;;;;;51.53;34.78;;;10.30;99.90;;;;;;9859710;30;20047;-80
2022/09/25 07:24:20;;;;;;;53.22;37.47;;;10.40;99.90;;;;;;9844361;30;20032;-79
2022/09/25 07:29:21;;;;;;;52.05;33.47;;;10.50;99.90;;;;;;9861129;30;20036;-80
2022/09/25 07:34:22;;;;;;;48.08;32.05;;;10.50;99.90;;;;;;9859263;30;20087;-80
2022/09/25 07:39:23;;;;;;;49.72;32.38;;;10.60;99.90;;;;;;9860303;30;20048;-82
2022/09/25 07:44:23;;;;;;;47.55;32.70;;;10.70;99.90;;;;;;9861124;30;20073;-81
2022/09/25 07:49:24;;;;;;;46.50;31.90;;;10.70;99.90;;;;;;9859381;30;20097;-80
2022/09/25 07:54:25;;;;;;;50.20;33.90;;;10.80;99.90;;;;;;9859638;30;20766;-79
2022/09/25 07:59:25;;;;;;;59.03;38.58;;;10.90;99.90;;;;;;9859893;30;20040;-80
2022/09/25 08:04:26;;;;;;;56.13;37.25;;;11.00;99.90;;;;;;9860579;30;20059;-80
2022/09/25 08:09:27;;;;;;;62.58;41.08;;;11.20;99.90;;;;;;9859436;30;20497;-81
2022/09/25 08:14:28;;;;;;;53.83;35.95;;;11.30;99.90;;;;;;9846019;30;20058;-80
2022/09/25 08:19:28;;;;;;;51.50;34.67;;;11.40;99.90;;;;;;9867955;30;20047;-82
2022/09/25 08:24:29;;;;;;;56.83;37.03;;;11.50;99.90;;;;;;9866793;30;20039;-82
2022/09/25 08:29:30;;;;;;;54.08;36.22;;;11.60;99.90;;;;;;9861674;30;20035;-80
2022/09/25 08:34:31;;;;;;;54.88;37.88;;;11.70;99.90;;;;;;9866710;30;20056;-81
2022/09/25 08:39:31;;;;;;;59.70;42.10;;;11.90;99.90;;;;;;9866567;30;20637;-80
2022/09/25 08:44:46;;;;;;;82.70;59.60;;;11.90;99.90;;;;;;9866117;30;20486;-80
2022/09/25 08:49:53;;;;;;;67.97;43.37;;;12.10;99.90;;;;;;9866988;30;20058;-81
2022/09/25 08:54:53;;;;;;;43.17;30.20;;;12.20;99.90;;;;;;9864004;30;20794;-80
2022/09/25 09:00:14;;;;;;;44.58;29.98;;;12.10;99.90;;;;;;9850300;30;20040;-81
2022/09/25 09:05:25;;;;;;;43.47;30.23;;;12.20;99.90;;;;;;9849716;30;20055;-80
2022/09/25 09:10:36;;;;;;;40.40;27.77;;;12.30;99.90;;;;;;9857203;30;20044;-80
2022/09/25 09:15:45;;;;;;;40.28;29.83;;;12.40;99.90;;;;;;9849549;30;20044;-80
2022/09/25 09:20:55;;;;;;;44.53;30.80;;;12.60;99.90;;;;;;9862364;30;20123;-81
2022/09/25 09:26:23;;;;;;;39.05;27.42;;;12.80;99.90;;;;;;9845041;30;20042;-80
2022/09/25 09:32:21;;;;;;;40.20;28.25;;;13.10;99.90;;;;;;9860382;30;20032;-82
2022/09/25 09:37:32;;;;;;;39.28;28.08;;;13.00;99.90;;;;;;9772902;30;20166;-81
2022/09/25 09:42:52;;;;;;;40.33;28.25;;;13.00;99.90;;;;;;9859664;30;20035;-81
2022/09/25 09:48:16;;;;;;;45.30;28.70;;;12.90;99.90;;;;;;9846503;30;20376;-81
2022/09/25 09:53:45;;;;;;;41.72;28.63;;;12.90;99.90;;;;;;9860328;30;20151;-80
2022/09/25 09:59:24;;;;;;;41.15;28.63;;;13.00;99.90;;;;;;9861644;30;20070;-82
2022/09/25 10:04:30;;;;;;;44.83;31.52;;;13.00;99.90;;;;;;9773646;30;20063;-81
2022/09/25 10:09:30;;;;;;;;;;;13.10;99.90;;;;;;9861025;30;20040;-81
2022/09/25 10:14:37;;;;;;;43.97;28.88;;;13.10;99.90;;;;;;9847157;30;19921;-82
2022/09/25 10:19:52;;;;;;;44.13;30.23;;;13.20;99.90;;;;;;9863538;30;20159;-80
2022/09/25 10:24:57;;;;;;;41.05;28.17;;;13.30;99.90;;;;;;9846108;30;20036;-80
2022/09/25 10:30:04;;;;;;;41.92;30.05;;;13.40;99.90;;;;;;9863055;30;20401;-80
2022/09/25 10:35:12;;;;;;;46.30;34.25;;;13.70;99.90;;;;;;9862589;30;20505;-80
2022/09/25 10:40:32;;;;;;;63.13;49.10;;;14.10;99.90;;;;;;9862604;30;20101;-81
2022/09/25 10:45:34;;;;;;;49.70;39.22;;;14.70;99.90;;;;;;9856428;30;20447;-80
2022/09/25 10:50:38;;;;;;;36.85;27.23;;;15.00;99.90;;;;;;9862151;30;20035;-80
2022/09/25 10:55:49;;;;;;;38.22;26.77;;;14.80;99.90;;;;;;9861584;30;20539;-79
2022/09/25 11:00:53;;;;;;;37.85;28.65;;;14.60;99.90;;;;;;9845013;30;20058;-81
2022/09/25 11:05:58;;;;;;;37.72;28.00;;;14.40;99.90;;;;;;9861295;30;20404;-80
2022/09/25 11:11:01;;;;;;;39.20;28.05;;;14.30;99.90;;;;;;9860621;30;20035;-81
2022/09/25 11:16:09;;;;;;;48.50;32.95;;;13.90;99.90;;;;;;9861394;30;20079;-81
2022/09/25 11:21:22;;;;;;;38.72;28.05;;;13.90;99.90;;;;;;9843931;30;20376;-80
2022/09/25 11:26:38;;;;;;;46.42;32.80;;;14.10;99.90;;;;;;9856610;30;20039;-80
2022/09/25 11:32:19;;;;;;;46.28;31.13;;;14.20;99.90;;;;;;9858807;30;20583;-79
2022/09/25 11:37:24;;;;;;;40.83;28.90;;;14.20;99.90;;;;;;9752705;30;20074;-80
2022/09/25 11:42:34;;;;;;;46.27;33.30;;;14.20;99.90;;;;;;9859660;30;20491;-80
2022/09/25 11:47:52;;;;;;;41.70;28.08;;;14.40;99.90;;;;;;9855385;30;20048;-80
2022/09/25 11:53:23;;;;;;;40.58;28.10;;;14.60;99.90;;;;;;9872469;30;20041;-81
2022/09/25 11:58:32;;;;;;;38.90;27.15;;;14.60;99.90;;;;;;9871596;30;20439;-80
2022/09/25 12:03:51;;;;;;;34.38;24.90;;;14.90;99.90;;;;;;9871652;30;20062;-79
2022/09/25 12:08:56;;;;;;;31.90;23.65;;;15.20;99.90;;;;;;9873624;30;20036;-80
2022/09/25 12:14:14;;;;;;;33.60;23.67;;;15.70;99.90;;;;;;9853214;30;20083;-80
2022/09/25 12:19:25;;;;;;;28.27;21.67;;;16.20;99.90;;;;;;9870363;30;20500;-81
2022/09/25 12:24:56;;;;;;;28.50;22.25;;;16.60;99.90;;;;;;9872149;30;20043;-80
2022/09/25 12:30:17;;;;;;;28.30;21.17;;;16.50;99.90;;;;;;9872116;30;20821;-81
2022/09/25 12:35:35;;;;;;;28.35;20.98;;;16.50;99.90;;;;;;9871246;30;20503;-79
2022/09/25 12:40:42;;;;;;;28.92;21.45;;;16.30;99.90;;;;;;9868443;30;20090;-81
2022/09/25 12:45:48;;;;;;;28.15;21.20;;;16.10;99.90;;;;;;9874661;30;20077;-81
2022/09/25 12:51:08;;;;;;;27.95;21.75;;;16.10;99.90;;;;;;9867755;30;20109;-80
2022/09/25 12:56:12;;;;;;;26.60;20.92;;;16.30;99.90;;;;;;9870852;30;20059;-80
2022/09/25 13:01:22;;;;;;;30.05;20.52;;;16.50;99.90;;;;;;9864778;30;20038;-80
2022/09/25 13:06:32;;;;;;;31.00;22.08;;;16.30;99.90;;;;;;9862834;30;20039;-80
2022/09/25 13:11:44;;;;;;;27.88;20.95;;;16.30;99.90;;;;;;9849886;30;20163;-80
2022/09/25 13:16:47;;;;;;;26.23;20.08;;;16.30;99.90;;;;;;9865525;30;20043;-80
2022/09/25 13:21:48;;;;;;;28.55;21.27;;;16.40;99.90;;;;;;9864924;30;20036;-80
2022/09/25 13:26:54;;;;;;;27.33;19.27;;;16.30;99.90;;;;;;9865461;30;20044;-79
2022/09/25 13:32:17;;;;;;;26.75;19.75;;;16.30;99.90;;;;;;9864046;30;20036;-80
2022/09/25 13:37:25;;;;;;;24.65;18.08;;;16.40;99.90;;;;;;9857644;30;20090;-80
2022/09/25 13:42:28;;;;;;;25.20;18.48;;;16.40;99.90;;;;;;9848251;30;20036;-80
2022/09/25 13:47:36;;;;;;;26.67;19.38;;;16.50;99.90;;;;;;9863432;30;20067;-80
2022/09/25 13:52:37;;;;;;;22.58;17.25;;;16.50;99.90;;;;;;9861103;30;20378;-79
2022/09/25 13:57:57;;;;;;;25.05;18.55;;;16.50;99.90;;;;;;9860619;30;20044;-81
2022/09/25 14:03:01;;;;;;;23.45;16.77;;;16.40;99.90;;;;;;9862958;30;20952;-80
2022/09/25 14:08:06;;;;;;;20.43;14.70;;;16.40;99.90;;;;;;9859567;30;20068;-80
2022/09/25 14:13:12;;;;;;;19.30;15.00;;;16.30;99.90;;;;;;9861163;30;20494;-81
2022/09/25 14:18:16;;;;;;;;;;;16.30;99.90;;;;;;9863318;30;20092;-80
2022/09/25 14:23:19;;;;;;;20.42;14.63;;;16.20;99.90;;;;;;9862670;30;19917;-80
2022/09/25 14:28:31;;;;;;;20.35;14.52;;;16.00;99.90;;;;;;9862420;30;20039;-81
2022/09/25 14:33:50;;;;;;;22.60;15.73;;;16.00;99.90;;;;;;9857593;30;20429;-82
2022/09/25 14:39:25;;;;;;;80.50;51.28;;;15.90;99.90;;;;;;9860964;30;20050;-82
2022/09/25 14:44:58;;;;;;;44.67;26.30;;;15.80;99.90;;;;;;9840930;30;20071;-81
2022/09/25 14:50:00;;;;;;;37.10;25.95;;;15.70;99.90;;;;;;9857096;30;20032;-81
2022/09/25 14:55:03;;;;;;;27.23;20.35;;;15.70;99.90;;;;;;9862067;30;20473;-81
2022/09/25 15:00:07;;;;;;;38.10;28.00;;;15.70;99.90;;;;;;9860530;30;20035;-81
2022/09/25 15:05:26;;;;;;;26.55;20.05;;;15.70;99.90;;;;;;9859436;30;20055;-81
2022/09/25 15:10:37;;;;;;;28.35;20.33;;;15.70;99.90;;;;;;9857458;30;20842;-81
2022/09/25 15:15:39;;;;;;;26.30;18.70;;;15.70;99.90;;;;;;9855571;30;20059;-81
2022/09/25 15:20:46;;;;;;;38.42;28.65;;;15.60;99.90;;;;;;9858754;30;20119;-82
2022/09/25 15:25:53;;;;;;;68.13;59.40;;;15.50;99.90;;;;;;9859342;30;20044;-81
2022/09/25 15:30:57;;;;;;;64.13;54.40;;;15.40;99.90;;;;;;9858704;30;20031;-82
2022/09/25 15:36:00;;;;;;;43.53;31.65;;;15.40;99.90;;;;;;9860678;30;20505;-81
2022/09/25 15:41:02;;;;;;;36.72;24.77;;;15.50;99.90;;;;;;9857243;30;20036;-81
2022/09/25 15:46:02;;;;;;;29.30;22.45;;;15.60;99.90;;;;;;9859275;30;20055;-81
2022/09/25 15:51:22;;;;;;;27.67;20.17;;;15.50;99.90;;;;;;9860542;30;20375;-81
2022/09/25 15:56:29;;;;;;;28.25;21.98;;;15.40;99.90;;;;;;9859049;30;20050;-81
2022/09/25 16:06:53;;;;;;;27.27;19.08;;;15.10;99.90;;;;;;9859416;30;20585;-81
2022/09/25 16:12:29;;;;;;;73.25;56.45;;;14.80;99.90;;;;;;9860361;30;20101;-80
2022/09/25 16:17:40;;;;;;;51.33;42.97;;;14.60;99.90;;;;;;9858246;30;20421;-80
2022/09/25 16:22:45;;;;;;;35.10;27.42;;;14.40;99.90;;;;;;9859433;30;20031;-80
2022/09/25 16:27:46;;;;;;;;;;;14.20;99.90;;;;;;9860699;30;20126;-81
2022/09/25 16:32:51;;;;;;;29.35;21.27;;;14.10;99.90;;;;;;9859587;30;20310;-81
2022/09/25 16:37:53;;;;;;;26.50;20.35;;;13.90;99.90;;;;;;9868214;29;20081;-80
2022/09/25 16:42:56;;;;;;;31.23;22.38;;;13.80;99.90;;;;;;9866092;30;20130;-81
2022/09/25 16:47:57;;;;;;;58.65;38.25;;;13.70;99.90;;;;;;9865686;30;20555;-80
2022/09/25 16:53:02;;;;;;;59.75;39.33;;;13.60;99.90;;;;;;9865726;30;20048;-80
2022/09/25 16:58:08;;;;;;;63.92;44.65;;;13.60;99.90;;;;;;9865839;30;20047;-81
2022/09/25 17:03:11;;;;;;;43.35;30.25;;;13.60;99.90;;;;;;9864794;30;20056;-81
2022/09/25 17:08:18;;;;;;;37.63;28.88;;;13.50;99.90;;;;;;9863538;30;20685;-82
2022/09/25 17:13:25;;;;;;;39.17;29.00;;;13.50;99.90;;;;;;9864777;30;20501;-82
2022/09/25 17:18:26;;;;;;;41.40;27.95;;;13.40;99.90;;;;;;9862727;30;20051;-81
2022/09/25 17:23:27;;;;;;;39.50;29.85;;;13.30;99.90;;;;;;9865080;30;20036;-81
2022/09/25 17:28:28;;;;;;;40.53;30.50;;;13.20;99.90;;;;;;9863458;30;20131;-82
2022/09/25 17:33:31;;;;;;;36.30;27.17;;;13.10;99.90;;;;;;9860737;30;20457;-81
2022/09/25 17:38:32;;;;;;;36.88;27.52;;;13.10;99.90;;;;;;9862935;30;20060;-79
2022/09/25 17:43:33;;;;;;;43.33;30.38;;;13.00;99.90;;;;;;9859553;30;20042;-81
2022/09/25 17:48:34;;;;;;;54.53;37.53;;;13.00;99.90;;;;;;9857570;30;20040;-81
2022/09/25 17:53:35;;;;;;;55.58;39.38;;;12.90;99.90;;;;;;9861124;30;20122;-80
2022/09/25 17:58:36;;;;;;;45.47;32.08;;;12.80;99.90;;;;;;9861084;30;20039;-80
2022/09/25 18:03:36;;;;;;;49.70;35.42;;;12.70;99.90;;;;;;9860231;30;20062;-80
2022/09/25 18:08:37;;;;;;;46.90;35.28;;;12.70;99.90;;;;;;9862231;30;20036;-80
2022/09/25 18:13:39;;;;;;;50.35;36.20;;;12.70;99.90;;;;;;9859448;30;20048;-82
2022/09/25 18:24:01;;;;;;;44.88;31.42;;;12.30;99.90;;;;;;9861690;30;20043;-81
2022/09/25 18:29:02;;;;;;;54.33;37.95;;;12.20;99.90;;;;;;9863408;30;20040;-81
2022/09/25 18:34:03;;;;;;;58.75;39.92;;;12.10;99.90;;;;;;9845631;30;20047;-82
2022/09/25 18:39:05;;;;;;;66.78;43.15;;;12.00;99.90;;;;;;9861512;30;20496;-81
2022/09/25 18:44:08;;;;;;;67.88;44.20;;;11.90;99.90;;;;;;9859992;30;20036;-80
2022/09/25 18:49:09;;;;;;;68.03;42.17;;;11.80;99.90;;;;;;9860277;30;20405;-81
2022/09/25 18:54:14;;;;;;;75.65;46.85;;;11.80;99.90;;;;;;9861156;30;20048;-81
2022/09/25 18:59:15;;;;;;;76.93;49.65;;;11.60;99.90;;;;;;9856679;30;20067;-82
2022/09/25 19:04:16;;;;;;;90.85;58.35;;;11.50;99.90;;;;;;9858694;30;20123;-81
2022/09/25 19:09:19;;;;;;;82.60;52.70;;;11.30;99.90;;;;;;9861195;30;20059;-81
2022/09/25 19:14:20;;;;;;;97.72;63.40;;;11.20;99.90;;;;;;9842315;30;20152;-82
2022/09/25 19:19:21;;;;;;;103.57;63.13;;;11.10;99.90;;;;;;9861015;30;20040;-81
2022/09/25 19:24:22;;;;;;;83.45;51.67;;;11.10;99.90;;;;;;9857275;30;20051;-81
2022/09/25 19:29:22;;;;;;;93.38;56.38;;;11.10;99.90;;;;;;9844238;30;20105;-81
2022/09/25 19:34:24;;;;;;;111.65;62.15;;;11.20;99.90;;;;;;9859632;30;20065;-81
2022/09/25 19:39:27;;;;;;;80.05;50.78;;;11.20;99.90;;;;;;9860433;30;20036;-81
2022/09/25 19:44:32;;;;;;;84.72;52.50;;;11.30;99.90;;;;;;9859189;30;20417;-81
2022/09/25 19:49:32;;;;;;;92.47;58.93;;;11.40;99.90;;;;;;9857040;30;20043;-81
2022/09/25 19:54:33;;;;;;;86.82;55.85;;;11.40;99.90;;;;;;9859602;30;20417;-81
2022/09/25 19:59:34;;;;;;;93.25;60.05;;;11.50;99.90;;;;;;9860419;30;20097;-82
2022/09/25 20:04:35;;;;;;;86.13;53.85;;;11.50;99.90;;;;;;9854553;30;20545;-81
2022/09/25 20:09:35;;;;;;;93.22;54.15;;;11.50;99.90;;;;;;9861172;30;20036;-81
2022/09/25 20:14:36;;;;;;;73.05;46.72;;;11.40;99.90;;;;;;9867178;30;20094;-81
2022/09/25 20:19:37;;;;;;;89.28;52.83;;;11.30;99.90;;;;;;9850801;30;20055;-81
2022/09/25 20:24:37;;;;;;;87.28;50.28;;;11.10;99.90;;;;;;9867426;30;20048;-81
2022/09/25 20:29:38;;;;;;;101.85;58.60;;;11.00;99.90;;;;;;9867229;30;20051;-81
2022/09/25 20:34:38;;;;;;;90.32;55.40;;;10.90;99.90;;;;;;9860968;30;20054;-81
2022/09/25 20:39:39;;;;;;;93.85;57.63;;;10.90;99.90;;;;;;9867368;30;20548;-81
2022/09/25 20:44:39;;;;;;;104.78;60.90;;;10.90;99.90;;;;;;9866745;30;20032;-82
2022/09/25 20:49:40;;;;;;;100.65;59.28;;;10.90;99.90;;;;;;9865775;30;20051;-81
2022/09/25 20:54:41;;;;;;;90.20;55.05;;;10.90;99.90;;;;;;9866015;30;20533;-82
2022/09/25 20:59:41;;;;;;;89.72;55.83;;;10.90;99.90;;;;;;9864383;30;20036;-81
2022/09/25 21:04:43;;;;;;;106.82;58.55;;;10.90;99.90;;;;;;9848830;30;20074;-81
2022/09/25 21:09:44;;;;;;;89.60;49.40;;;10.90;99.90;;;;;;9865397;30;20040;-81
2022/09/25 21:14:44;;;;;;;75.70;46.97;;;10.80;99.90;;;;;;9866370;30;20059;-82
2022/09/25 21:19:45;;;;;;;94.35;51.83;;;10.70;99.90;;;;;;9863009;30;20046;-81
2022/09/25 21:24:45;;;;;;;68.25;41.75;;;10.60;99.90;;;;;;9864386;30;20040;-81
2022/09/25 21:29:46;;;;;;;83.47;48.25;;;10.50;99.90;;;;;;9865462;30;20100;-81
2022/09/25 21:34:46;;;;;;;91.30;52.38;;;10.40;99.90;;;;;;9863385;30;20077;-80
2022/09/25 21:39:47;;;;;;;89.05;47.33;;;10.40;99.90;;;;;;9864996;30;20043;-81
2022/09/25 21:44:47;;;;;;;80.30;45.80;;;10.40;99.90;;;;;;9862826;30;20059;-81
2022/09/25 21:49:48;;;;;;;70.47;42.50;;;10.30;99.90;;;;;;9861269;30;20039;-81
2022/09/25 21:54:48;;;;;;;74.40;43.05;;;10.20;99.90;;;;;;9863645;30;20047;-81
2022/09/25 21:59:49;;;;;;;87.15;51.10;;;10.10;99.90;;;;;;9864724;30;20584;-81
2022/09/25 22:04:49;;;;;;;111.73;52.73;;;9.90;99.90;;;;;;9863530;30;20109;-81
2022/09/25 22:09:50;;;;;;;121.38;53.65;;;9.90;99.90;;;;;;9862620;30;20027;-81
2022/09/25 22:14:50;;;;;;;324.83;77.03;;;9.80;99.90;;;;;;9864209;30;20048;-81
2022/09/25 22:19:51;;;;;;;425.43;81.77;;;9.70;99.90;;;;;;9863394;30;20040;-81
2022/09/25 22:24:52;;;;;;;86.63;48.23;;;9.60;99.90;;;;;;9863173;30;20044;-82
2022/09/25 22:29:52;;;;;;;165.07;60.07;;;9.50;99.90;;;;;;9863808;30;20036;-80
2022/09/25 22:34:53;;;;;;;86.40;51.67;;;9.50;99.90;;;;;;9859761;30;20066;-81
2022/09/25 22:39:53;;;;;;;113.10;56.97;;;9.50;99.90;;;;;;9862278;30;20385;-81
2022/09/25 22:44:54;;;;;;;89.37;49.00;;;9.40;99.90;;;;;;9862354;30;20665;-80
2022/09/25 22:49:55;;;;;;;168.63;67.60;;;9.40;99.90;;;;;;9862697;30;20052;-80
2022/09/25 22:54:55;;;;;;;136.17;66.27;;;9.40;99.90;;;;;;9861775;30;20489;-81
2022/09/25 22:59:56;;;;;;;127.40;61.57;;;9.40;99.90;;;;;;9862326;30;20527;-81
2022/09/25 23:04:57;;;;;;;88.10;52.60;;;9.30;99.90;;;;;;9860038;30;20074;-81
2022/09/25 23:09:57;;;;;;;139.13;68.30;;;9.30;99.90;;;;;;9861524;30;20529;-81
2022/09/25 23:14:58;;;;;;;87.20;53.50;;;9.20;99.90;;;;;;9861286;30;20047;-82
2022/09/25 23:19:58;;;;;;;133.20;68.00;;;9.30;99.90;;;;;;9860828;30;20036;-81
2022/09/25 23:24:59;;;;;;;126.57;68.93;;;9.40;99.90;;;;;;9844887;30;20078;-80
2022/09/25 23:29:59;;;;;;;139.33;69.50;;;9.50;99.90;;;;;;9860651;30;20072;-80
2022/09/25 23:35:00;;;;;;;87.10;53.80;;;9.60;99.90;;;;;;9860197;30;20096;-80
2022/09/25 23:40:01;;;;;;;92.00;55.97;;;9.70;99.90;;;;;;9861867;30;20122;-80
2022/09/25 23:45:02;;;;;;;128.82;65.00;;;9.80;99.90;;;;;;9860590;30;20078;-82
2022/09/25 23:50:03;;;;;;;87.68;52.00;;;9.90;99.90;;;;;;9859284;30;20413;-81
2022/09/25 23:55:04;;;;;;;99.78;56.35;;;9.90;99.90;;;;;;9844288;30;20071;-81
